createdAt,value
2019-05-09T00:00:34.443Z,3.67
2019-05-09T00:01:09.880Z,4.30
2019-05-09T00:01:45.888Z,3.57
2019-05-09T00:02:29.414Z,3.67
2019-05-09T00:03:05.132Z,3.80
2019-05-09T00:03:40.560Z,3.90
2019-05-09T00:04:16.734Z,3.50
2019-05-09T00:04:53.246Z,3.60
2019-05-09T00:05:28.840Z,3.40
2019-05-09T00:06:04.755Z,3.90
2019-05-09T00:06:40.171Z,3.73
2019-05-09T00:07:15.704Z,4.13
2019-05-09T00:07:53.211Z,3.90
2019-05-09T00:08:29.093Z,4.00
2019-05-09T00:09:06.548Z,3.50
2019-05-09T00:09:43.968Z,3.93
2019-05-09T00:10:19.781Z,4.10
2019-05-09T00:10:55.618Z,3.90
2019-05-09T00:11:33.470Z,3.40
2019-05-09T00:12:08.900Z,3.57
2019-05-09T00:12:44.742Z,3.70
2019-05-09T00:13:20.582Z,3.20
2019-05-09T00:13:56.037Z,3.20
2019-05-09T00:14:34.060Z,3.60
2019-05-09T00:15:09.480Z,4.17
2019-05-09T00:15:44.893Z,3.33
2019-05-09T00:16:23.317Z,3.57
2019-05-09T00:16:58.014Z,3.43
2019-05-09T00:17:34.097Z,3.90
2019-05-09T00:18:09.890Z,3.33
2019-05-09T00:18:45.721Z,3.40
2019-05-09T00:19:21.209Z,3.87
2019-05-09T00:19:59.620Z,3.13
2019-05-09T00:20:43.447Z,3.83
2019-05-09T00:21:23.901Z,3.40
2019-05-09T00:21:59.476Z,3.20
2019-05-09T00:22:35.490Z,3.50
2019-05-09T00:23:10.937Z,3.77
2019-05-09T00:23:46.398Z,3.40
2019-05-09T00:24:23.846Z,3.40
2019-05-09T00:24:59.815Z,3.60
2019-05-09T00:25:35.339Z,3.37
2019-05-09T00:26:13.419Z,3.47
2019-05-09T00:26:49.035Z,3.30
2019-05-09T00:27:25.113Z,3.60
2019-05-09T00:28:01.251Z,3.53
2019-05-09T00:28:38.539Z,3.03
2019-05-09T00:29:21.037Z,3.57
2019-05-09T00:29:56.849Z,3.37
2019-05-09T00:30:50.057Z,3.63
2019-05-09T00:31:43.794Z,3.40
2019-05-09T00:32:36.576Z,3.73
2019-05-09T00:33:14.307Z,3.50
2019-05-09T00:33:54.254Z,3.30
2019-05-09T00:34:36.406Z,3.77
2019-05-09T00:35:26.725Z,3.13
2019-05-09T00:36:04.291Z,3.27
2019-05-09T00:36:39.933Z,3.00
2019-05-09T00:37:15.824Z,3.83
2019-05-09T00:37:56.151Z,3.30
2019-05-09T00:38:39.193Z,3.60
2019-05-09T00:39:14.645Z,3.23
2019-05-09T00:39:50.185Z,3.07
2019-05-09T00:40:26.045Z,3.60
2019-05-09T00:41:03.864Z,3.70
2019-05-09T00:41:38.989Z,3.30
2019-05-09T00:42:14.439Z,3.20
2019-05-09T00:42:50.001Z,3.67
2019-05-09T00:43:26.125Z,3.20
2019-05-09T00:44:08.017Z,3.70
2019-05-09T00:44:45.874Z,3.67
2019-05-09T00:45:39.451Z,3.80
2019-05-09T00:46:27.472Z,3.10
2019-05-09T00:47:24.634Z,3.30
2019-05-09T00:48:00.481Z,3.40
2019-05-09T00:48:59.850Z,3.53
2019-05-09T00:49:35.627Z,3.63
2019-05-09T00:50:13.108Z,3.43
2019-05-09T00:50:48.227Z,3.37
2019-05-09T00:51:24.168Z,3.20
2019-05-09T00:52:00.009Z,3.20
2019-05-09T00:52:35.850Z,3.23
2019-05-09T00:53:13.552Z,3.33
2019-05-09T00:53:48.929Z,3.60
2019-05-09T00:54:25.286Z,3.90
2019-05-09T00:55:00.698Z,3.37
2019-05-09T00:55:36.829Z,3.70
2019-05-09T00:56:13.451Z,3.70
2019-05-09T00:56:49.029Z,3.77
2019-05-09T00:57:36.461Z,4.07
2019-05-09T00:58:13.568Z,3.30
2019-05-09T00:58:49.164Z,3.50
2019-05-09T00:59:24.735Z,3.53
2019-05-09T01:00:00.249Z,3.50
2019-05-09T01:00:36.256Z,3.30
2019-05-09T01:01:13.284Z,3.33
2019-05-09T01:01:48.738Z,3.40
2019-05-09T01:02:24.620Z,3.67
2019-05-09T01:03:00.043Z,3.77
2019-05-09T01:03:35.835Z,3.50
2019-05-09T01:04:13.005Z,3.57
2019-05-09T01:04:48.744Z,3.70
2019-05-09T01:05:24.260Z,3.53
2019-05-09T01:05:59.967Z,4.00
2019-05-09T01:06:35.707Z,3.30
2019-05-09T01:07:11.135Z,3.70
2019-05-09T01:07:47.023Z,3.10
2019-05-09T01:08:24.176Z,3.90
2019-05-09T01:09:00.246Z,3.23
2019-05-09T01:09:36.073Z,3.40
2019-05-09T01:10:13.430Z,3.60
2019-05-09T01:10:49.188Z,3.33
2019-05-09T01:11:24.781Z,3.70
2019-05-09T01:12:00.233Z,3.97
2019-05-09T01:12:35.757Z,3.37
2019-05-09T01:13:11.190Z,3.17
2019-05-09T01:13:47.395Z,3.30
2019-05-09T01:14:23.588Z,3.57
2019-05-09T01:14:59.505Z,2.90
2019-05-09T01:15:34.959Z,3.63
2019-05-09T01:16:10.737Z,3.20
2019-05-09T01:16:46.181Z,3.57
2019-05-09T01:17:23.935Z,3.63
2019-05-09T01:17:59.504Z,3.40
2019-05-09T01:18:35.876Z,3.60
2019-05-09T01:19:13.928Z,3.30
2019-05-09T01:19:49.004Z,3.30
2019-05-09T01:20:24.669Z,3.37
2019-05-09T01:21:00.714Z,4.40
2019-05-09T01:21:36.146Z,3.33
2019-05-09T01:22:13.163Z,3.50
2019-05-09T01:22:48.793Z,3.30
2019-05-09T01:23:24.255Z,3.33
2019-05-09T01:23:59.691Z,3.53
2019-05-09T01:24:35.149Z,3.30
2019-05-09T01:25:13.398Z,4.33
2019-05-09T01:25:48.873Z,3.83
2019-05-09T01:26:24.662Z,3.80
2019-05-09T01:27:00.343Z,3.20
2019-05-09T01:27:35.838Z,3.70
2019-05-09T01:28:13.794Z,3.77
2019-05-09T01:28:49.388Z,4.03
2019-05-09T01:29:25.928Z,3.97
2019-05-09T01:30:04.279Z,3.47
2019-05-09T01:30:39.098Z,3.80
2019-05-09T01:31:14.669Z,3.83
2019-05-09T01:31:50.152Z,3.70
2019-05-09T01:32:36.246Z,3.73
2019-05-09T01:33:33.162Z,3.70
2019-05-09T01:34:17.908Z,3.87
2019-05-09T01:34:53.401Z,3.80
2019-05-09T01:35:29.066Z,3.90
2019-05-09T01:36:04.842Z,3.73
2019-05-09T01:36:57.658Z,3.70
2019-05-09T01:37:34.178Z,4.07
2019-05-09T01:38:09.679Z,3.97
2019-05-09T01:38:45.142Z,4.10
2019-05-09T01:39:20.891Z,3.83
2019-05-09T01:39:56.393Z,4.17
2019-05-09T01:40:33.197Z,4.07
2019-05-09T01:41:22.874Z,4.10
2019-05-09T01:41:46.155Z,4.47
2019-05-09T01:42:23.320Z,4.07
2019-05-09T01:42:58.867Z,4.30
2019-05-09T01:43:34.284Z,4.17
2019-05-09T01:44:10.035Z,4.37
2019-05-09T01:44:45.928Z,4.13
2019-05-09T01:45:23.673Z,4.33
2019-05-09T01:45:59.119Z,4.33
2019-05-09T01:46:34.531Z,4.20
2019-05-09T01:47:09.971Z,4.80
2019-05-09T01:47:45.558Z,4.83
2019-05-09T01:48:23.307Z,4.90
2019-05-09T01:48:58.260Z,4.50
2019-05-09T01:49:34.462Z,4.33
2019-05-09T01:50:09.948Z,4.23
2019-05-09T01:50:45.964Z,4.50
2019-05-09T01:51:23.400Z,4.20
2019-05-09T01:51:58.673Z,4.60
2019-05-09T01:52:34.362Z,4.07
2019-05-09T01:53:10.269Z,4.50
2019-05-09T01:53:50.394Z,4.23
2019-05-09T01:54:26.668Z,4.70
2019-05-09T01:55:03.727Z,4.30
2019-05-09T01:55:58.410Z,3.67
2019-05-09T01:56:34.003Z,5.07
2019-05-09T01:57:09.441Z,4.40
2019-05-09T01:57:47.833Z,4.00
2019-05-09T01:58:23.260Z,4.47
2019-05-09T01:58:59.387Z,4.03
2019-05-09T01:59:34.847Z,4.40
2019-05-09T02:00:13.145Z,4.37
2019-05-09T02:00:48.163Z,4.33
2019-05-09T02:01:24.335Z,4.10
2019-05-09T02:02:00.404Z,4.37
2019-05-09T02:02:35.929Z,4.20
2019-05-09T02:03:13.898Z,4.20
2019-05-09T02:03:49.232Z,4.40
2019-05-09T02:04:25.094Z,4.30
2019-05-09T02:05:01.321Z,4.03
2019-05-09T02:05:36.745Z,4.73
2019-05-09T02:06:13.605Z,4.23
2019-05-09T02:06:49.345Z,4.07
2019-05-09T02:07:24.890Z,4.30
2019-05-09T02:08:00.840Z,4.83
2019-05-09T02:08:36.271Z,4.30
2019-05-09T02:09:13.890Z,4.23
2019-05-09T02:09:49.474Z,4.07
2019-05-09T02:10:25.817Z,4.13
2019-05-09T02:11:03.691Z,3.87
2019-05-09T02:11:42.753Z,4.13
2019-05-09T02:12:16.412Z,4.10
2019-05-09T02:12:53.768Z,3.83
2019-05-09T02:13:29.775Z,4.43
2019-05-09T02:14:05.388Z,4.40
2019-05-09T02:14:48.118Z,4.10
2019-05-09T02:15:34.178Z,4.20
2019-05-09T02:16:33.775Z,4.20
2019-05-09T02:17:17.234Z,3.80
2019-05-09T02:18:05.247Z,3.80
2019-05-09T02:18:44.544Z,4.30
2019-05-09T02:19:27.406Z,4.17
2019-05-09T02:20:03.956Z,4.30
2019-05-09T02:20:39.885Z,4.60
2019-05-09T02:21:15.631Z,4.80
2019-05-09T02:21:53.112Z,4.20
2019-05-09T02:22:35.101Z,4.40
2019-05-09T02:23:10.495Z,4.50
2019-05-09T02:23:45.925Z,4.50
2019-05-09T02:24:23.433Z,4.37
2019-05-09T02:24:58.898Z,4.00
2019-05-09T02:25:34.348Z,4.20
2019-05-09T02:26:10.146Z,4.17
2019-05-09T02:26:45.891Z,4.33
2019-05-09T02:27:23.843Z,3.87
2019-05-09T02:27:59.667Z,4.03
2019-05-09T02:28:35.108Z,4.10
2019-05-09T02:29:11.008Z,3.70
2019-05-09T02:29:46.856Z,3.83
2019-05-09T02:30:25.442Z,3.60
2019-05-09T02:30:59.860Z,3.87
2019-05-09T02:31:35.595Z,3.70
2019-05-09T02:32:11.112Z,4.07
2019-05-09T02:32:46.915Z,3.70
2019-05-09T02:33:24.969Z,3.60
2019-05-09T02:34:00.121Z,3.47
2019-05-09T02:34:35.881Z,3.90
2019-05-09T02:35:11.592Z,4.10
2019-05-09T02:35:56.775Z,4.00
2019-05-09T02:36:24.540Z,4.20
2019-05-09T02:37:00.073Z,4.33
2019-05-09T02:37:38.577Z,4.23
2019-05-09T02:38:13.098Z,4.00
2019-05-09T02:38:49.128Z,4.17
2019-05-09T02:39:24.685Z,4.20
2019-05-09T02:40:00.207Z,4.13
2019-05-09T02:40:35.652Z,4.20
2019-05-09T02:41:11.181Z,3.90
2019-05-09T02:42:00.881Z,3.80
2019-05-09T02:42:23.910Z,4.00
2019-05-09T02:42:59.402Z,3.63
2019-05-09T02:43:38.668Z,4.30
2019-05-09T02:44:12.268Z,3.80
2019-05-09T02:44:49.297Z,3.70
2019-05-09T02:45:28.432Z,3.63
2019-05-09T02:46:10.244Z,3.73
2019-05-09T02:46:54.782Z,3.30
2019-05-09T02:47:30.249Z,3.20
2019-05-09T02:48:05.634Z,3.40
2019-05-09T02:48:41.074Z,3.60
2019-05-09T02:49:18.922Z,3.33
2019-05-09T02:49:54.070Z,3.13
2019-05-09T02:50:29.557Z,3.80
2019-05-09T02:51:04.996Z,3.57
2019-05-09T02:51:41.363Z,3.77
2019-05-09T02:52:19.735Z,3.30
2019-05-09T02:52:54.126Z,3.20
2019-05-09T02:53:29.705Z,3.50
2019-05-09T02:54:05.282Z,3.43
2019-05-09T02:54:40.707Z,3.33
2019-05-09T02:55:18.435Z,3.37
2019-05-09T02:55:53.866Z,3.20
2019-05-09T02:56:29.880Z,3.23
2019-05-09T02:57:05.281Z,2.73
2019-05-09T02:57:40.911Z,3.57
2019-05-09T02:58:20.268Z,3.13
2019-05-09T02:59:29.650Z,3.20
2019-05-09T03:00:12.404Z,3.13
2019-05-09T03:00:53.879Z,3.27
2019-05-09T03:01:39.142Z,2.83
2019-05-09T03:02:34.086Z,2.57
2019-05-09T03:03:24.807Z,2.97
2019-05-09T03:04:00.775Z,2.63
2019-05-09T03:04:39.122Z,2.50
2019-05-09T03:05:14.321Z,2.90
2019-05-09T03:05:49.880Z,2.67
2019-05-09T03:06:28.141Z,2.77
2019-05-09T03:07:02.901Z,2.60
2019-05-09T03:07:50.727Z,2.20
2019-05-09T03:08:29.371Z,2.63
2019-05-09T03:09:03.485Z,2.40
2019-05-09T03:09:39.116Z,2.60
2019-05-09T03:10:14.850Z,2.40
2019-05-09T03:10:50.858Z,2.90
2019-05-09T03:11:29.015Z,2.53
2019-05-09T03:12:21.298Z,2.53
2019-05-09T03:12:40.911Z,2.27
2019-05-09T03:13:19.122Z,2.70
2019-05-09T03:13:54.270Z,2.37
2019-05-09T03:14:30.385Z,2.50
2019-05-09T03:15:09.052Z,2.53
2019-05-09T03:15:44.105Z,2.43
2019-05-09T03:16:19.976Z,2.60
2019-05-09T03:16:58.339Z,2.50
2019-05-09T03:17:33.470Z,2.00
2019-05-09T03:18:10.157Z,2.40
2019-05-09T03:18:45.587Z,2.33
2019-05-09T03:19:21.485Z,2.30
2019-05-09T03:19:58.660Z,2.07
2019-05-09T03:20:54.041Z,2.40
2019-05-09T03:21:38.992Z,1.93
2019-05-09T03:22:18.843Z,2.10
2019-05-09T03:22:58.077Z,2.60
2019-05-09T03:23:32.366Z,1.90
2019-05-09T03:24:09.866Z,2.23
2019-05-09T03:24:48.652Z,1.80
2019-05-09T03:25:22.726Z,2.10
2019-05-09T03:25:59.130Z,2.00
2019-05-09T03:26:38.640Z,1.83
2019-05-09T03:27:21.272Z,1.93
2019-05-09T03:28:02.627Z,1.50
2019-05-09T03:28:51.786Z,1.73
2019-05-09T03:29:31.590Z,1.97
2019-05-09T03:30:12.068Z,1.60
2019-05-09T03:30:45.921Z,1.87
2019-05-09T03:31:22.223Z,1.87
2019-05-09T03:32:00.037Z,2.17
2019-05-09T03:32:38.733Z,1.83
2019-05-09T03:33:13.040Z,1.40
2019-05-09T03:33:50.165Z,1.53
2019-05-09T03:34:29.790Z,1.60
2019-05-09T03:35:03.393Z,1.60
2019-05-09T03:35:38.831Z,1.70
2019-05-09T03:36:15.076Z,1.70
2019-05-09T03:36:50.626Z,1.40
2019-05-09T03:37:27.837Z,1.80
2019-05-09T03:38:08.212Z,1.60
2019-05-09T03:38:43.250Z,1.30
2019-05-09T03:39:18.814Z,1.73
2019-05-09T03:39:55.519Z,1.70
2019-05-09T03:40:31.068Z,1.77
2019-05-09T03:41:08.520Z,1.10
2019-05-09T03:41:44.423Z,1.23
2019-05-09T03:42:26.001Z,1.70
2019-05-09T03:42:58.774Z,1.57
2019-05-09T03:43:34.558Z,1.63
2019-05-09T03:44:09.986Z,1.27
2019-05-09T03:44:47.710Z,1.23
2019-05-09T03:45:23.124Z,1.33
2019-05-09T03:46:04.977Z,1.50
2019-05-09T03:46:47.759Z,1.57
2019-05-09T03:47:54.690Z,1.47
2019-05-09T03:48:37.420Z,1.20
2019-05-09T03:49:13.402Z,1.20
2019-05-09T03:50:08.218Z,1.10
2019-05-09T03:50:43.905Z,1.97
2019-05-09T03:51:19.866Z,1.47
2019-05-09T03:51:55.750Z,1.60
2019-05-09T03:52:33.975Z,1.33
2019-05-09T03:53:09.787Z,1.50
2019-05-09T03:53:45.320Z,1.53
2019-05-09T03:54:22.247Z,1.20
2019-05-09T03:54:57.993Z,1.23
2019-05-09T03:55:35.037Z,1.30
2019-05-09T03:56:12.550Z,1.27
2019-05-09T03:56:53.100Z,1.37
2019-05-09T03:57:30.953Z,1.10
2019-05-09T03:58:18.351Z,1.23
2019-05-09T03:58:53.789Z,1.20
2019-05-09T03:59:29.411Z,1.20
2019-05-09T04:00:07.683Z,1.13
2019-05-09T04:00:42.929Z,1.20
2019-05-09T04:01:18.915Z,1.10
2019-05-09T04:01:55.042Z,1.40
2019-05-09T04:02:30.501Z,1.33
2019-05-09T04:03:08.176Z,1.43
2019-05-09T04:03:43.495Z,1.27
2019-05-09T04:04:19.654Z,1.00
2019-05-09T04:04:55.292Z,1.20
2019-05-09T04:05:31.506Z,1.30
2019-05-09T04:06:08.331Z,1.30
2019-05-09T04:06:44.087Z,1.20
2019-05-09T04:07:19.980Z,1.40
2019-05-09T04:07:59.298Z,1.30
2019-05-09T04:08:34.708Z,1.00
2019-05-09T04:09:10.152Z,1.00
2019-05-09T04:09:47.859Z,1.20
2019-05-09T04:10:22.916Z,1.37
2019-05-09T04:10:58.828Z,1.47
2019-05-09T04:11:34.451Z,1.17
2019-05-09T04:12:10.063Z,1.20
2019-05-09T04:12:53.868Z,1.30
2019-05-09T04:13:47.551Z,1.50
2019-05-09T04:14:25.045Z,1.47
2019-05-09T04:15:00.501Z,1.40
2019-05-09T04:15:37.933Z,1.50
2019-05-09T04:16:13.820Z,1.10
2019-05-09T04:16:49.331Z,1.40
2019-05-09T04:17:42.259Z,1.30
2019-05-09T04:18:17.845Z,1.27
2019-05-09T04:18:53.464Z,1.13
2019-05-09T04:19:29.017Z,1.30
2019-05-09T04:20:04.519Z,1.30
2019-05-09T04:20:40.287Z,1.30
2019-05-09T04:21:17.554Z,1.30
2019-05-09T04:21:53.336Z,1.20
2019-05-09T04:22:29.087Z,1.17
2019-05-09T04:23:05.153Z,1.30
2019-05-09T04:23:40.997Z,0.93
2019-05-09T04:24:17.639Z,1.27
2019-05-09T04:24:53.402Z,0.90
2019-05-09T04:25:31.958Z,1.10
2019-05-09T04:26:21.234Z,1.23
2019-05-09T04:27:17.734Z,1.27
2019-05-09T04:27:53.447Z,1.10
2019-05-09T04:28:29.389Z,1.13
2019-05-09T04:29:04.862Z,1.00
2019-05-09T04:29:40.748Z,1.03
2019-05-09T04:30:18.298Z,1.40
2019-05-09T04:30:54.670Z,1.20
2019-05-09T04:31:30.241Z,1.23
2019-05-09T04:32:07.791Z,1.30
2019-05-09T04:32:42.872Z,1.30
2019-05-09T04:33:18.412Z,1.37
2019-05-09T04:33:54.095Z,1.07
2019-05-09T04:34:30.025Z,1.33
2019-05-09T04:35:08.032Z,1.20
2019-05-09T04:35:43.514Z,1.00
2019-05-09T04:36:21.307Z,1.20
2019-05-09T04:36:57.748Z,1.17
2019-05-09T04:37:33.839Z,1.27
2019-05-09T04:38:09.627Z,1.50
2019-05-09T04:38:47.157Z,1.30
2019-05-09T04:39:23.791Z,1.30
2019-05-09T04:40:03.302Z,1.17
2019-05-09T04:40:44.354Z,1.10
2019-05-09T04:41:16.294Z,1.40
2019-05-09T04:41:54.963Z,1.03
2019-05-09T04:42:28.825Z,1.13
2019-05-09T04:43:14.070Z,1.30
2019-05-09T04:43:42.811Z,1.50
2019-05-09T04:44:29.362Z,1.40
2019-05-09T04:45:14.172Z,1.50
2019-05-09T04:45:53.559Z,1.27
2019-05-09T04:46:29.291Z,1.50
2019-05-09T04:47:05.139Z,1.20
2019-05-09T04:47:43.426Z,1.40
2019-05-09T04:48:34.146Z,0.97
2019-05-09T04:49:09.954Z,1.27
2019-05-09T04:49:47.530Z,1.07
2019-05-09T04:50:24.853Z,1.23
2019-05-09T04:51:03.877Z,1.67
2019-05-09T04:51:39.467Z,1.10
2019-05-09T04:52:15.333Z,1.50
2019-05-09T04:52:50.960Z,1.30
2019-05-09T04:53:28.588Z,1.30
2019-05-09T04:54:04.221Z,1.37
2019-05-09T04:54:40.014Z,1.23
2019-05-09T04:55:18.190Z,1.17
2019-05-09T04:55:53.719Z,1.37
2019-05-09T04:56:33.608Z,1.10
2019-05-09T04:57:09.469Z,1.10
2019-05-09T04:57:44.919Z,0.90
2019-05-09T04:58:20.438Z,1.47
2019-05-09T04:58:58.192Z,1.37
2019-05-09T04:59:33.901Z,1.37
2019-05-09T05:00:11.814Z,1.17
2019-05-09T05:01:22.530Z,1.40
2019-05-09T05:02:31.874Z,1.30
2019-05-09T05:03:08.057Z,1.60
2019-05-09T05:03:44.385Z,1.40
2019-05-09T05:04:21.216Z,1.60
2019-05-09T05:04:58.522Z,1.40
2019-05-09T05:05:34.483Z,1.37
2019-05-09T05:06:09.945Z,1.50
2019-05-09T05:06:47.823Z,1.40
2019-05-09T05:07:23.214Z,1.37
2019-05-09T05:07:58.825Z,1.70
2019-05-09T05:08:34.642Z,1.53
2019-05-09T05:09:10.192Z,1.40
2019-05-09T05:09:48.361Z,1.70
2019-05-09T05:10:24.225Z,1.50
2019-05-09T05:10:59.841Z,1.20
2019-05-09T05:11:35.266Z,1.30
2019-05-09T05:12:10.709Z,1.10
2019-05-09T05:12:48.349Z,1.20
2019-05-09T05:13:26.745Z,1.40
2019-05-09T05:14:00.896Z,1.20
2019-05-09T05:14:38.502Z,1.30
2019-05-09T05:15:15.059Z,1.47
2019-05-09T05:15:50.643Z,1.03
2019-05-09T05:16:27.426Z,0.93
2019-05-09T05:17:08.500Z,1.23
2019-05-09T05:17:40.124Z,1.40
2019-05-09T05:18:17.384Z,1.20
2019-05-09T05:18:52.908Z,1.47
2019-05-09T05:19:31.517Z,1.27
2019-05-09T05:20:08.422Z,1.50
2019-05-09T05:20:44.514Z,1.33
2019-05-09T05:21:20.608Z,1.37
2019-05-09T05:21:59.449Z,1.23
2019-05-09T05:22:47.827Z,1.60
2019-05-09T05:23:29.436Z,1.23
2019-05-09T05:24:13.416Z,1.13
2019-05-09T05:24:56.061Z,1.33
2019-05-09T05:25:32.060Z,1.50
2019-05-09T05:26:09.429Z,1.10
2019-05-09T05:26:44.831Z,1.60
2019-05-09T05:27:20.641Z,1.20
2019-05-09T05:27:58.114Z,1.60
2019-05-09T05:28:34.033Z,1.37
2019-05-09T05:29:09.472Z,1.40
2019-05-09T05:29:47.506Z,1.20
2019-05-09T05:30:22.857Z,1.13
2019-05-09T05:30:58.791Z,1.20
2019-05-09T05:31:34.632Z,1.03
2019-05-09T05:32:14.760Z,1.50
2019-05-09T05:33:09.654Z,1.30
2019-05-09T05:33:53.756Z,1.10
2019-05-09T05:34:41.652Z,1.30
2019-05-09T05:35:48.378Z,1.40
2019-05-09T05:36:24.430Z,1.50
2019-05-09T05:37:00.055Z,1.40
2019-05-09T05:37:38.453Z,1.17
2019-05-09T05:38:13.489Z,1.20
2019-05-09T05:38:48.939Z,1.50
2019-05-09T05:39:24.565Z,1.27
2019-05-09T05:40:00.037Z,1.20
2019-05-09T05:40:43.678Z,1.63
2019-05-09T05:41:12.882Z,1.17
2019-05-09T05:41:49.235Z,1.13
2019-05-09T05:42:25.040Z,1.27
2019-05-09T05:43:01.303Z,1.30
2019-05-09T05:43:41.535Z,1.20
2019-05-09T05:44:13.925Z,1.30
2019-05-09T05:44:50.269Z,1.13
2019-05-09T05:45:28.470Z,1.20
2019-05-09T05:46:29.331Z,1.40
2019-05-09T05:47:18.081Z,1.20
2019-05-09T05:47:57.679Z,1.17
2019-05-09T05:48:33.977Z,1.17
2019-05-09T05:49:09.544Z,0.90
2019-05-09T05:49:45.357Z,1.10
2019-05-09T05:50:21.266Z,1.33
2019-05-09T05:50:57.790Z,1.07
2019-05-09T05:51:49.671Z,1.00
2019-05-09T05:52:27.708Z,1.17
2019-05-09T05:53:03.686Z,1.10
2019-05-09T05:53:39.167Z,1.40
2019-05-09T05:54:14.812Z,1.30
2019-05-09T05:54:50.353Z,1.23
2019-05-09T05:55:27.466Z,1.07
2019-05-09T05:56:03.177Z,1.43
2019-05-09T05:56:38.608Z,1.00
2019-05-09T05:57:14.079Z,1.07
2019-05-09T05:57:49.698Z,0.97
2019-05-09T05:58:28.223Z,0.90
2019-05-09T05:59:03.210Z,1.13
2019-05-09T05:59:40.902Z,1.80
2019-05-09T06:00:19.297Z,0.97
2019-05-09T06:00:54.894Z,1.13
2019-05-09T06:01:30.787Z,1.23
2019-05-09T06:02:08.539Z,1.13
2019-05-09T06:02:43.390Z,1.23
2019-05-09T06:03:18.881Z,1.40
2019-05-09T06:03:54.864Z,1.60
2019-05-09T06:04:30.798Z,1.20
2019-05-09T06:05:08.490Z,1.20
2019-05-09T06:05:44.174Z,1.10
2019-05-09T06:06:20.326Z,1.10
2019-05-09T06:06:58.670Z,1.03
2019-05-09T06:07:33.593Z,1.30
2019-05-09T06:08:09.039Z,1.10
2019-05-09T06:08:44.876Z,1.23
2019-05-09T06:09:21.007Z,0.80
2019-05-09T06:09:57.626Z,1.20
2019-05-09T06:10:33.743Z,1.13
2019-05-09T06:11:12.148Z,0.90
2019-05-09T06:11:48.438Z,1.23
2019-05-09T06:12:23.721Z,0.80
2019-05-09T06:12:59.737Z,1.00
2019-05-09T06:13:37.831Z,1.10
2019-05-09T06:14:13.048Z,1.10
2019-05-09T06:14:48.950Z,1.10
2019-05-09T06:15:25.099Z,0.90
2019-05-09T06:16:01.032Z,1.10
2019-05-09T06:16:37.709Z,1.17
2019-05-09T06:17:14.077Z,0.90
2019-05-09T06:17:49.790Z,1.30
2019-05-09T06:18:27.620Z,1.03
2019-05-09T06:19:03.225Z,0.83
2019-05-09T06:19:38.646Z,1.47
2019-05-09T06:20:14.494Z,1.13
2019-05-09T06:20:50.300Z,1.00
2019-05-09T06:21:28.282Z,0.90
2019-05-09T06:22:03.436Z,1.13
2019-05-09T06:22:39.226Z,0.90
2019-05-09T06:23:17.434Z,1.10
2019-05-09T06:23:53.451Z,1.10
2019-05-09T06:24:29.085Z,1.30
2019-05-09T06:25:09.198Z,1.60
2019-05-09T06:25:42.506Z,1.50
2019-05-09T06:26:18.857Z,0.90
2019-05-09T06:26:55.116Z,1.00
2019-05-09T06:27:31.196Z,1.13
2019-05-09T06:28:07.688Z,1.37
2019-05-09T06:28:43.274Z,1.63
2019-05-09T06:29:19.207Z,1.23
2019-05-09T06:29:54.844Z,1.00
2019-05-09T06:30:31.029Z,1.00
2019-05-09T06:31:07.666Z,1.07
2019-05-09T06:31:43.442Z,1.10
2019-05-09T06:32:19.079Z,1.03
2019-05-09T06:32:54.838Z,1.03
2019-05-09T06:33:30.447Z,1.00
2019-05-09T06:34:08.175Z,1.13
2019-05-09T06:34:43.052Z,1.30
2019-05-09T06:35:24.653Z,1.20
2019-05-09T06:36:00.353Z,0.90
2019-05-09T06:36:38.937Z,0.77
2019-05-09T06:37:14.116Z,0.80
2019-05-09T06:37:49.678Z,1.20
2019-05-09T06:38:25.455Z,0.90
2019-05-09T06:39:02.140Z,0.90
2019-05-09T06:39:37.981Z,0.80
2019-05-09T06:40:18.457Z,0.83
2019-05-09T06:40:54.584Z,1.00
2019-05-09T06:41:30.241Z,0.87
2019-05-09T06:42:05.708Z,1.00
2019-05-09T06:42:41.161Z,1.13
2019-05-09T06:43:22.045Z,1.20
2019-05-09T06:44:17.035Z,1.00
2019-05-09T06:45:07.733Z,0.70
2019-05-09T06:46:00.968Z,0.70
2019-05-09T06:46:40.840Z,0.87
2019-05-09T06:47:27.760Z,0.93
2019-05-09T06:48:03.984Z,1.03
2019-05-09T06:48:39.713Z,1.10
2019-05-09T06:49:27.913Z,1.20
2019-05-09T06:49:59.400Z,0.90
2019-05-09T06:50:34.944Z,1.00
2019-05-09T06:51:10.352Z,0.90
2019-05-09T06:51:47.614Z,1.27
2019-05-09T06:52:23.437Z,1.13
2019-05-09T06:52:59.432Z,1.47
2019-05-09T06:53:34.978Z,1.00
2019-05-09T06:54:10.419Z,0.90
2019-05-09T06:54:48.410Z,1.20
2019-05-09T06:55:24.511Z,1.00
2019-05-09T06:56:00.366Z,1.37
2019-05-09T06:56:38.016Z,0.87
2019-05-09T06:57:13.705Z,0.80
2019-05-09T06:57:50.528Z,1.07
2019-05-09T06:58:33.599Z,1.17
2019-05-09T06:59:09.034Z,1.00
2019-05-09T06:59:44.950Z,1.20
2019-05-09T07:00:33.967Z,1.00
2019-05-09T07:01:33.117Z,1.10
2019-05-09T07:02:13.943Z,1.10
2019-05-09T07:03:00.868Z,1.20
2019-05-09T07:03:37.523Z,1.20
2019-05-09T07:04:22.413Z,1.20
2019-05-09T07:05:18.802Z,1.47
2019-05-09T07:06:02.344Z,1.30
2019-05-09T07:06:45.412Z,1.27
2019-05-09T07:07:52.098Z,1.63
2019-05-09T07:08:47.833Z,0.90
2019-05-09T07:09:27.978Z,1.37
2019-05-09T07:10:04.858Z,1.57
2019-05-09T07:10:40.625Z,0.90
2019-05-09T07:11:19.031Z,1.43
2019-05-09T07:11:54.273Z,1.53
2019-05-09T07:12:31.157Z,1.30
2019-05-09T07:13:07.929Z,1.13
2019-05-09T07:13:43.587Z,1.20
2019-05-09T07:14:34.768Z,1.30
2019-05-09T07:15:10.231Z,1.57
2019-05-09T07:15:48.079Z,1.20
2019-05-09T07:16:23.404Z,1.60
2019-05-09T07:16:59.707Z,1.43
2019-05-09T07:17:38.571Z,1.20
2019-05-09T07:18:13.611Z,1.47
2019-05-09T07:18:49.446Z,1.63
2019-05-09T07:19:27.866Z,1.30
2019-05-09T07:20:02.998Z,1.40
2019-05-09T07:20:38.458Z,1.20
2019-05-09T07:21:13.917Z,1.40
2019-05-09T07:22:09.251Z,2.17
2019-05-09T07:22:48.445Z,1.43
2019-05-09T07:23:24.802Z,1.30
2019-05-09T07:24:00.684Z,1.33
2019-05-09T07:25:00.944Z,1.33
2019-05-09T07:25:39.560Z,1.50
2019-05-09T07:26:17.956Z,1.70
2019-05-09T07:26:53.911Z,1.37
2019-05-09T07:27:30.267Z,1.20
2019-05-09T07:28:07.630Z,1.20
2019-05-09T07:28:42.910Z,1.57
2019-05-09T07:29:18.410Z,1.40
2019-05-09T07:29:54.902Z,1.47
2019-05-09T07:30:57.310Z,1.40
2019-05-09T07:31:47.998Z,1.30
2019-05-09T07:32:24.549Z,1.27
2019-05-09T07:33:15.660Z,1.27
2019-05-09T07:34:10.438Z,1.70
2019-05-09T07:34:49.704Z,1.30
2019-05-09T07:35:27.808Z,1.70
2019-05-09T07:36:03.430Z,1.57
2019-05-09T07:36:39.263Z,1.50
2019-05-09T07:37:14.754Z,1.37
2019-05-09T07:37:50.340Z,1.27
2019-05-09T07:38:30.445Z,1.10
2019-05-09T07:39:08.750Z,1.27
2019-05-09T07:39:44.565Z,1.60
2019-05-09T07:40:20.115Z,1.50
2019-05-09T07:40:58.040Z,1.30
2019-05-09T07:41:33.802Z,1.70
2019-05-09T07:42:09.304Z,1.50
2019-05-09T07:42:44.826Z,1.33
2019-05-09T07:43:20.444Z,1.20
2019-05-09T07:43:58.318Z,1.20
2019-05-09T07:44:48.003Z,1.23
2019-05-09T07:45:12.067Z,1.10
2019-05-09T07:46:04.261Z,1.10
2019-05-09T07:47:00.603Z,1.53
2019-05-09T07:47:36.094Z,1.00
2019-05-09T07:48:11.966Z,1.17
2019-05-09T07:48:48.433Z,1.33
2019-05-09T07:49:24.691Z,1.20
2019-05-09T07:50:00.945Z,1.20
2019-05-09T07:50:38.872Z,1.20
2019-05-09T07:51:13.725Z,1.47
2019-05-09T07:51:49.336Z,1.83
2019-05-09T07:52:25.180Z,1.20
2019-05-09T07:53:01.139Z,1.77
2019-05-09T07:53:38.149Z,1.27
2019-05-09T07:54:22.116Z,7.67
2019-05-09T07:54:51.103Z,4.20
2019-05-09T07:55:27.509Z,5.57
2019-05-09T07:56:03.987Z,16.93
2019-05-09T07:56:40.734Z,6.63
2019-05-09T07:57:18.154Z,3.33
2019-05-09T07:57:55.464Z,4.57
2019-05-09T07:58:32.192Z,8.93
2019-05-09T07:59:07.845Z,3.73
2019-05-09T07:59:43.531Z,2.90
2019-05-09T08:00:30.767Z,2.90
2019-05-09T08:01:08.447Z,5.90
2019-05-09T08:01:43.718Z,5.37
2019-05-09T08:02:19.343Z,3.77
2019-05-09T08:02:55.257Z,3.23
2019-05-09T08:03:31.422Z,5.43
2019-05-09T08:04:07.545Z,7.43
2019-05-09T08:04:43.646Z,2.40
2019-05-09T08:05:28.765Z,1.90
2019-05-09T08:06:04.334Z,2.47
2019-05-09T08:06:39.783Z,2.00
2019-05-09T08:07:17.467Z,4.73
2019-05-09T08:07:52.639Z,2.23
2019-05-09T08:08:28.285Z,2.23
2019-05-09T08:09:08.339Z,4.23
2019-05-09T08:09:43.464Z,5.90
2019-05-09T08:10:19.206Z,3.77
2019-05-09T08:10:54.790Z,2.70
2019-05-09T08:11:32.361Z,4.93
2019-05-09T08:12:08.204Z,5.50
2019-05-09T08:12:44.111Z,6.57
2019-05-09T08:13:21.397Z,2.73
2019-05-09T08:13:57.589Z,4.10
2019-05-09T08:14:33.660Z,2.87
2019-05-09T08:15:16.644Z,4.60
2019-05-09T08:15:47.776Z,3.20
2019-05-09T08:16:23.812Z,3.53
2019-05-09T08:17:00.412Z,3.10
2019-05-09T08:17:38.186Z,3.40
2019-05-09T08:18:13.114Z,3.67
2019-05-09T08:18:48.598Z,2.30
2019-05-09T08:19:24.536Z,1.90
2019-05-09T08:20:00.223Z,2.80
2019-05-09T08:20:40.482Z,2.33
2019-05-09T08:21:13.166Z,2.87
2019-05-09T08:21:48.934Z,4.40
2019-05-09T08:22:26.086Z,2.50
2019-05-09T08:23:02.450Z,2.00
2019-05-09T08:23:38.731Z,1.40
2019-05-09T08:24:14.509Z,1.33
2019-05-09T08:24:50.223Z,1.00
2019-05-09T08:25:27.716Z,1.20
2019-05-09T08:26:08.735Z,1.33